createdAt,value
2022-11-16T00:00:24.242Z,11.16
2022-11-16T00:04:26.382Z,11.13
2022-11-16T00:08:37.052Z,11.14
2022-11-16T00:12:40.104Z,11.10
2022-11-16T00:16:44.611Z,11.13
2022-11-16T00:20:56.988Z,10.98
2022-11-16T00:25:05.086Z,10.87
2022-11-16T00:29:22.297Z,10.91
2022-11-16T00:33:26.657Z,10.87
2022-11-16T00:37:29.982Z,10.91
2022-11-16T00:41:33.204Z,10.87
2022-11-16T00:45:35.398Z,11.01
2022-11-16T00:49:38.544Z,10.98
2022-11-16T00:53:41.063Z,10.96
2022-11-16T00:57:43.833Z,11.09
2022-11-16T01:06:43.553Z,11.39
2022-11-16T01:10:45.808Z,11.41
2022-11-16T01:14:48.385Z,11.46
2022-11-16T01:18:53.139Z,11.51
2022-11-16T01:22:55.996Z,11.47
2022-11-16T01:26:58.741Z,11.51
2022-11-16T01:31:05.893Z,11.52
2022-11-16T01:35:16.318Z,11.51
2022-11-16T01:39:18.769Z,11.49
2022-11-16T01:43:28.568Z,11.52
2022-11-16T01:47:37.250Z,11.53
2022-11-16T01:51:45.105Z,11.56
2022-11-16T01:55:49.033Z,11.54
2022-11-16T02:00:02.219Z,11.45
2022-11-16T02:04:15.668Z,11.48
2022-11-16T02:09:11.142Z,11.48
2022-11-16T02:13:35.901Z,11.50
2022-11-16T02:18:02.180Z,11.60
2022-11-16T02:22:17.430Z,11.63
2022-11-16T02:26:44.561Z,11.71
2022-11-16T02:30:50.805Z,11.61
2022-11-16T02:35:03.144Z,11.58
2022-11-16T02:39:10.592Z,11.58
2022-11-16T02:43:17.991Z,11.53
2022-11-16T02:47:28.969Z,11.41
2022-11-16T02:51:35.029Z,11.31
2022-11-16T02:55:38.111Z,11.30
2022-11-16T02:59:44.425Z,11.29
2022-11-16T03:03:57.287Z,11.33
2022-11-16T03:08:16.565Z,11.30
2022-11-16T03:12:24.867Z,11.33
2022-11-16T03:16:33.124Z,11.44
2022-11-16T03:20:38.343Z,11.40
2022-11-16T03:24:41.772Z,11.50
2022-11-16T03:29:00.969Z,11.55
2022-11-16T03:33:32.933Z,11.64
2022-11-16T03:37:36.388Z,11.65
2022-11-16T03:41:42.073Z,11.75
2022-11-16T03:45:46.981Z,11.83
2022-11-16T03:49:49.105Z,11.83
2022-11-16T03:53:53.692Z,11.86
2022-11-16T03:57:56.258Z,11.91
2022-11-16T04:02:00.176Z,11.97
2022-11-16T04:06:20.953Z,12.03
2022-11-16T04:10:42.605Z,12.11
2022-11-16T04:15:03.739Z,12.16
2022-11-16T04:19:28.002Z,12.18
2022-11-16T04:23:48.916Z,12.19
2022-11-16T04:28:10.158Z,12.20
2022-11-16T04:32:31.644Z,12.15
2022-11-16T04:36:52.251Z,12.15
2022-11-16T04:40:54.366Z,12.13
2022-11-16T04:45:17.024Z,12.17
2022-11-16T04:49:23.430Z,12.27
2022-11-16T04:53:27.215Z,12.32
2022-11-16T04:57:42.676Z,12.34
2022-11-16T05:02:03.277Z,12.36
2022-11-16T05:06:05.718Z,12.29
2022-11-16T05:10:10.089Z,12.26
2022-11-16T05:14:13.407Z,12.29
2022-11-16T05:18:17.694Z,12.38
2022-11-16T05:22:19.892Z,12.42
2022-11-16T05:26:24.210Z,12.41
2022-11-16T05:30:28.804Z,12.35
2022-11-16T05:34:34.052Z,12.32
2022-11-16T05:38:37.028Z,12.38
2022-11-16T05:42:41.203Z,12.34
2022-11-16T05:46:44.801Z,12.39
2022-11-16T05:50:47.778Z,12.41
2022-11-16T05:54:57.761Z,12.42
2022-11-16T05:59:00.348Z,12.41
2022-11-16T06:03:02.419Z,12.31
2022-11-16T06:07:07.805Z,12.36
2022-11-16T06:11:11.871Z,12.33
2022-11-16T06:19:45.449Z,12.29
2022-11-16T06:23:48.081Z,12.25
2022-11-16T06:27:50.256Z,12.35
2022-11-16T06:31:53.733Z,12.41
2022-11-16T06:35:55.835Z,12.50
2022-11-16T06:40:00.273Z,12.56
2022-11-16T06:44:04.137Z,12.62
2022-11-16T06:48:10.821Z,12.65
2022-11-16T06:52:13.815Z,12.76
2022-11-16T06:56:16.554Z,12.81
2022-11-16T07:00:27.903Z,12.87
2022-11-16T07:04:32.608Z,12.84
2022-11-16T07:08:35.754Z,12.87
2022-11-16T07:12:38.222Z,12.84
2022-11-16T07:16:41.555Z,12.77
2022-11-16T07:20:43.722Z,12.80
2022-11-16T07:24:47.002Z,12.84
2022-11-16T07:28:49.437Z,13.02
2022-11-16T07:32:59.404Z,13.17
2022-11-16T07:37:21.415Z,13.28
2022-11-16T07:41:23.856Z,13.36
2022-11-16T07:45:39.203Z,13.48
2022-11-16T07:49:45.052Z,13.57
2022-11-16T07:53:58.038Z,13.55
2022-11-16T07:58:00.233Z,13.68
2022-11-16T08:02:03.333Z,13.55
2022-11-16T08:06:19.911Z,13.60
2022-11-16T08:10:23.234Z,13.74
2022-11-16T08:14:25.713Z,13.89
2022-11-16T08:18:31.896Z,13.95
2022-11-16T08:22:34.286Z,13.90
2022-11-16T08:26:37.152Z,13.85
2022-11-16T08:30:45.591Z,13.92
2022-11-16T08:34:52.633Z,14.04
2022-11-16T08:38:54.857Z,14.12
2022-11-16T08:42:59.027Z,14.18
2022-11-16T08:47:01.677Z,14.25
2022-11-16T08:51:19.603Z,14.28
2022-11-16T08:55:28.749Z,14.33
2022-11-16T08:59:31.188Z,14.43
2022-11-16T09:03:39.018Z,14.57
2022-11-16T09:07:43.468Z,14.58
2022-11-16T09:11:45.465Z,14.68
2022-11-16T09:15:47.604Z,14.87
2022-11-16T09:19:49.812Z,15.17
2022-11-16T09:23:54.178Z,15.55
2022-11-16T09:27:56.312Z,15.87
2022-11-16T09:31:58.533Z,16.19
2022-11-16T09:36:02.697Z,16.19
2022-11-16T09:40:05.390Z,16.16
2022-11-16T09:44:35.546Z,16.10
2022-11-16T09:48:39.289Z,16.28
2022-11-16T09:52:44.838Z,16.28
2022-11-16T09:56:49.137Z,16.29
2022-11-16T10:00:56.638Z,16.31
2022-11-16T10:05:03.572Z,16.13
2022-11-16T10:09:05.713Z,16.02
2022-11-16T10:13:32.818Z,16.08
2022-11-16T10:18:00.020Z,16.03
2022-11-16T10:22:05.476Z,16.20
2022-11-16T10:26:30.389Z,16.32
2022-11-16T10:30:40.501Z,16.19
2022-11-16T10:34:50.185Z,16.31
2022-11-16T10:38:52.248Z,16.09
2022-11-16T10:42:57.276Z,15.88
2022-11-16T10:47:11.520Z,15.70
2022-11-16T10:51:13.574Z,15.50
2022-11-16T10:55:16.095Z,15.55
2022-11-16T10:59:21.804Z,15.53
2022-11-16T11:03:31.934Z,15.73
2022-11-16T11:07:37.884Z,15.84
2022-11-16T11:11:58.532Z,15.86
2022-11-16T11:16:15.868Z,16.17
2022-11-16T11:20:18.084Z,16.34
2022-11-16T11:28:49.651Z,16.75
2022-11-16T11:32:53.055Z,17.09
2022-11-16T11:37:02.468Z,16.94
2022-11-16T11:41:07.423Z,16.98
2022-11-16T11:45:15.617Z,17.20
2022-11-16T11:49:30.473Z,17.37
2022-11-16T11:53:49.884Z,17.63
2022-11-16T11:57:54.027Z,17.63
2022-11-16T12:01:56.061Z,17.90
2022-11-16T12:06:12.895Z,18.17
2022-11-16T12:10:55.528Z,18.28
2022-11-16T12:15:28.660Z,18.30
2022-11-16T12:20:13.279Z,17.95
2022-11-16T12:24:35.684Z,17.91
2022-11-16T12:28:57.496Z,17.83
2022-11-16T12:33:34.104Z,17.80
2022-11-16T12:38:03.667Z,17.45
2022-11-16T12:42:13.224Z,17.09
2022-11-16T12:46:18.427Z,16.86
2022-11-16T12:50:42.036Z,16.85
2022-11-16T12:55:27.463Z,16.82
2022-11-16T12:59:49.158Z,16.78
2022-11-16T13:03:58.374Z,16.60
2022-11-16T13:08:15.532Z,16.45
2022-11-16T13:12:23.540Z,16.39
2022-11-16T13:16:26.129Z,16.16
2022-11-16T13:21:04.159Z,16.03
2022-11-16T13:25:13.025Z,16.24
2022-11-16T13:29:48.537Z,16.52
2022-11-16T13:33:56.253Z,16.63
2022-11-16T13:37:58.379Z,16.65
2022-11-16T13:42:12.576Z,16.49
2022-11-16T13:46:48.214Z,16.39
2022-11-16T13:50:46.325Z,16.39
2022-11-16T13:54:55.456Z,16.42
2022-11-16T13:58:59.099Z,16.49
2022-11-16T14:03:16.478Z,16.48
2022-11-16T14:07:50.013Z,16.33
2022-11-16T14:18:07.701Z,16.16
2022-11-16T14:22:23.474Z,15.93
2022-11-16T14:26:34.107Z,15.86
2022-11-16T14:31:00.446Z,15.86
2022-11-16T14:41:25.054Z,16.07
2022-11-16T14:45:33.313Z,16.17
2022-11-16T14:49:37.618Z,16.17
2022-11-16T14:53:41.456Z,16.04
2022-11-16T14:57:43.572Z,16.11
2022-11-16T15:01:45.998Z,16.14
2022-11-16T15:05:48.693Z,16.20
2022-11-16T15:09:54.739Z,16.18
2022-11-16T15:13:56.836Z,16.05
2022-11-16T15:17:58.824Z,15.90
2022-11-16T15:22:03.219Z,15.88
2022-11-16T15:26:05.374Z,15.83
2022-11-16T15:30:15.259Z,15.82
2022-11-16T15:34:19.249Z,15.76
2022-11-16T15:38:30.380Z,15.68
2022-11-16T15:42:32.544Z,15.58
2022-11-16T15:46:35.671Z,15.54
2022-11-16T15:50:37.742Z,15.48
2022-11-16T15:54:58.416Z,15.51
2022-11-16T15:59:09.594Z,15.44
2022-11-16T16:03:24.046Z,15.30
2022-11-16T16:07:41.286Z,15.19
2022-11-16T16:11:43.470Z,15.08
2022-11-16T16:15:45.703Z,15.02
2022-11-16T16:19:56.022Z,14.93
2022-11-16T16:23:58.143Z,14.83
2022-11-16T16:28:00.723Z,14.70
2022-11-16T16:32:02.993Z,14.54
2022-11-16T16:36:05.575Z,14.42
2022-11-16T16:40:08.316Z,14.26
2022-11-16T16:44:15.469Z,14.24
2022-11-16T16:48:17.945Z,14.08
2022-11-16T16:52:20.008Z,14.02
2022-11-16T16:56:22.090Z,14.01
2022-11-16T17:00:24.896Z,13.89
2022-11-16T17:04:26.919Z,13.79
2022-11-16T17:08:38.965Z,13.71
2022-11-16T17:12:41.035Z,13.61
2022-11-16T17:16:43.029Z,13.51
2022-11-16T17:20:45.597Z,13.38
2022-11-16T17:24:47.845Z,13.17
2022-11-16T17:28:54.084Z,12.95
2022-11-16T17:32:57.071Z,12.93
2022-11-16T17:36:59.088Z,12.87
2022-11-16T17:41:09.599Z,12.90
2022-11-16T17:45:12.120Z,12.91
2022-11-16T17:49:14.154Z,12.91
2022-11-16T17:53:16.132Z,12.99
2022-11-16T17:57:18.267Z,12.99
2022-11-16T18:01:20.742Z,12.98
2022-11-16T18:05:23.002Z,12.98
2022-11-16T18:09:25.313Z,12.99
2022-11-16T18:13:27.317Z,12.97
2022-11-16T18:17:31.216Z,12.96
2022-11-16T18:21:39.824Z,12.96
2022-11-16T18:25:41.898Z,12.97
2022-11-16T18:29:44.008Z,12.96
2022-11-16T18:33:49.078Z,12.94
2022-11-16T18:37:51.381Z,12.91
2022-11-16T18:41:55.079Z,12.86
2022-11-16T18:45:57.474Z,12.75
2022-11-16T18:49:59.474Z,12.62
2022-11-16T18:54:01.500Z,12.50
2022-11-16T18:58:13.029Z,12.35
2022-11-16T19:02:24.765Z,12.17
2022-11-16T19:06:26.829Z,12.08
2022-11-16T19:10:29.120Z,12.05
2022-11-16T19:14:31.149Z,12.04
2022-11-16T19:18:33.230Z,11.98
2022-11-16T19:22:35.384Z,12.00
2022-11-16T19:26:37.479Z,11.96
2022-11-16T19:30:39.461Z,11.88
2022-11-16T19:34:41.644Z,11.80
2022-11-16T19:38:45.041Z,11.67
2022-11-16T19:42:47.172Z,11.52
2022-11-16T19:46:49.234Z,11.27
2022-11-16T19:50:51.270Z,11.12
2022-11-16T19:54:53.330Z,11.07
2022-11-16T19:58:55.982Z,11.16
2022-11-16T20:02:58.331Z,10.95
2022-11-16T20:07:00.794Z,10.89
2022-11-16T20:11:10.691Z,10.84
2022-11-16T20:15:12.678Z,10.94
2022-11-16T20:19:15.792Z,10.88
2022-11-16T20:23:19.476Z,10.80
2022-11-16T20:27:21.498Z,10.64
2022-11-16T20:31:28.778Z,10.60
2022-11-16T20:35:30.898Z,10.39
2022-11-16T20:39:33.147Z,10.32
2022-11-16T20:43:35.840Z,10.26
2022-11-16T20:47:38.044Z,10.22
2022-11-16T20:51:40.215Z,10.32
2022-11-16T20:55:42.250Z,10.21
2022-11-16T20:59:44.245Z,10.22
2022-11-16T21:03:47.080Z,10.23
2022-11-16T21:07:49.240Z,10.21
2022-11-16T21:12:09.885Z,10.05
2022-11-16T21:16:15.198Z,10.00
2022-11-16T21:20:32.779Z,9.99
2022-11-16T21:24:35.421Z,9.97
2022-11-16T21:28:38.339Z,9.96
2022-11-16T21:32:40.579Z,10.01
2022-11-16T21:36:42.823Z,10.99
2022-11-16T21:40:45.308Z,10.35
2022-11-16T21:44:47.501Z,10.33
2022-11-16T21:48:52.752Z,10.29
2022-11-16T21:52:54.864Z,10.37
2022-11-16T21:56:56.958Z,10.43
2022-11-16T22:01:02.628Z,10.44
2022-11-16T22:05:26.484Z,10.50
2022-11-16T22:09:28.518Z,10.53
2022-11-16T22:13:30.572Z,10.56
2022-11-16T22:17:33.124Z,10.59
2022-11-16T22:21:35.090Z,10.65
2022-11-16T22:25:37.332Z,10.71
2022-11-16T22:29:39.586Z,10.77
2022-11-16T22:33:41.859Z,10.75
2022-11-16T22:37:44.216Z,10.59
2022-11-16T22:41:46.438Z,10.54
2022-11-16T22:45:48.801Z,10.25
2022-11-16T22:49:50.847Z,10.31
2022-11-16T22:53:54.535Z,10.37
2022-11-16T22:57:56.684Z,10.16
2022-11-16T23:01:58.684Z,10.12
2022-11-16T23:06:00.900Z,10.14
2022-11-16T23:10:03.172Z,9.95
2022-11-16T23:14:42.901Z,10.03
2022-11-16T23:18:44.944Z,10.24
2022-11-16T23:23:06.098Z,10.38
2022-11-16T23:27:28.146Z,10.48
2022-11-16T23:31:30.143Z,10.60
2022-11-16T23:35:32.570Z,10.63
2022-11-16T23:39:34.745Z,10.56
2022-11-16T23:43:55.368Z,10.44
2022-11-16T23:47:57.341Z,10.35
2022-11-16T23:51:59.419Z,10.29
2022-11-16T23:56:06.065Z,10.16
